Terminal Aerodrome Forecast
Issued by NWS Bismarck, ND

Home | Current Version | Previous Version | Text Only | Print | Product List | Glossary Off
Versions: 1 2 3 4 5 6 7 8 9 10 11 12 13 14 15 16

300
FTUS43 KBIS 240538 AAA
TAFISN
TAF AMD
KISN 240538Z 2406/2506 04005KT P6SM SCT100
      TEMPO 2407/2411 3SM BR SCT020
     FM241100 06004KT P6SM BKN020
     FM241600 10005KT P6SM BKN040
     FM250200 13010KT P6SM SCT100=

USA.gov is the U.S. government's official web portal to all federal, state and local government web resources and services.